createdAt,value
2023-01-09T00:00:29.583Z,69.47
2023-01-09T00:01:29.523Z,70.17
2023-01-09T00:02:29.545Z,70.17
2023-01-09T00:03:29.699Z,70.57
2023-01-09T00:04:29.546Z,69.93
2023-01-09T00:05:29.556Z,69.93
2023-01-09T00:06:29.582Z,69.98
2023-01-09T00:08:29.554Z,70.70
2023-01-09T00:09:29.506Z,71.07
2023-01-09T00:10:29.522Z,70.77
2023-01-09T00:11:29.534Z,71.21
2023-01-09T00:12:29.544Z,71.21
2023-01-09T00:13:29.566Z,70.44
2023-01-09T00:14:29.498Z,70.44
2023-01-09T00:15:29.574Z,70.39
2023-01-09T00:16:29.617Z,71.36
2023-01-09T00:17:29.555Z,71.36
2023-01-09T00:18:29.566Z,71.21
2023-01-09T00:19:29.598Z,70.73
2023-01-09T00:20:29.580Z,70.79
2023-01-09T00:21:29.563Z,70.79
2023-01-09T00:22:29.574Z,70.24
2023-01-09T00:25:29.610Z,69.06
2023-01-09T00:26:29.606Z,69.20
2023-01-09T00:27:29.616Z,69.35
2023-01-09T00:29:29.619Z,68.87
2023-01-09T00:30:29.619Z,68.87
2023-01-09T00:31:29.575Z,69.11
2023-01-09T00:32:29.608Z,69.23
2023-01-09T00:33:29.584Z,69.23
2023-01-09T00:34:29.597Z,68.60
2023-01-09T00:35:29.627Z,68.52
2023-01-09T00:36:29.605Z,68.10
2023-01-09T00:37:29.602Z,68.10
2023-01-09T00:38:29.606Z,68.75
2023-01-09T00:40:29.616Z,69.12
2023-01-09T00:41:29.626Z,68.75
2023-01-09T00:42:29.601Z,69.37
2023-01-09T00:43:29.649Z,69.71
2023-01-09T00:44:29.598Z,69.50
2023-01-09T00:45:29.693Z,68.95
2023-01-09T00:46:29.671Z,69.21
2023-01-09T00:47:29.631Z,69.21
2023-01-09T00:48:29.695Z,69.54
2023-01-09T00:49:29.604Z,69.54
2023-01-09T00:50:29.633Z,69.60
2023-01-09T00:53:29.677Z,68.72
2023-01-09T00:54:29.642Z,68.75
2023-01-09T00:55:29.668Z,69.08
2023-01-09T00:56:29.700Z,69.29
2023-01-09T00:57:29.645Z,69.29
2023-01-09T00:58:29.644Z,68.87
2023-01-09T00:59:29.640Z,68.97
2023-01-09T01:00:29.625Z,68.77
2023-01-09T01:01:29.759Z,68.74
2023-01-09T01:02:29.792Z,68.74
2023-01-09T01:04:29.742Z,68.51
2023-01-09T01:05:29.693Z,68.27
2023-01-09T01:06:29.648Z,68.27
2023-01-09T01:07:29.659Z,68.47
2023-01-09T01:08:29.642Z,69.04
2023-01-09T01:09:29.706Z,69.58
2023-01-09T01:10:29.657Z,69.58
2023-01-09T01:11:29.695Z,70.09
2023-01-09T01:12:29.703Z,70.09
2023-01-09T01:13:29.660Z,69.81
2023-01-09T01:14:29.673Z,69.56
2023-01-09T01:15:29.671Z,69.59
2023-01-09T01:16:29.766Z,69.12
2023-01-09T01:17:29.739Z,68.92
2023-01-09T01:18:29.705Z,68.92
2023-01-09T01:19:29.665Z,68.66
2023-01-09T01:20:29.684Z,67.98
2023-01-09T01:21:29.691Z,68.57
2023-01-09T01:22:29.698Z,68.57
2023-01-09T01:23:29.711Z,68.67
2023-01-09T01:24:29.683Z,69.49
2023-01-09T01:25:29.722Z,69.61
2023-01-09T01:26:29.693Z,69.61
2023-01-09T01:27:29.729Z,69.79
2023-01-09T01:28:29.723Z,69.94
2023-01-09T01:29:29.735Z,69.94
2023-01-09T01:30:29.767Z,69.97
2023-01-09T01:31:29.703Z,69.83
2023-01-09T01:32:29.741Z,69.83
2023-01-09T01:33:29.714Z,69.58
2023-01-09T01:34:29.743Z,69.64
2023-01-09T01:35:29.752Z,69.95
2023-01-09T01:36:29.747Z,69.95
2023-01-09T01:37:29.811Z,68.87
2023-01-09T01:38:29.750Z,69.19
2023-01-09T01:39:29.716Z,69.30
2023-01-09T01:40:29.729Z,69.30
2023-01-09T01:41:29.945Z,69.71
2023-01-09T01:42:29.728Z,69.48
2023-01-09T01:43:29.748Z,69.42
2023-01-09T01:44:29.730Z,69.64
2023-01-09T01:45:29.782Z,69.49
2023-01-09T01:46:29.802Z,69.32
2023-01-09T01:47:29.747Z,69.23
2023-01-09T01:48:29.741Z,69.23
2023-01-09T01:49:29.786Z,68.72
2023-01-09T01:50:29.783Z,68.72
2023-01-09T01:51:29.831Z,68.98
2023-01-09T01:52:29.784Z,68.98
2023-01-09T01:53:29.784Z,68.82
2023-01-09T01:54:29.836Z,68.89
2023-01-09T01:55:29.804Z,68.96
2023-01-09T01:56:29.811Z,68.96
2023-01-09T01:57:29.765Z,68.73
2023-01-09T02:00:29.828Z,68.11
2023-01-09T02:01:29.894Z,68.35
2023-01-09T02:02:29.914Z,68.30
2023-01-09T02:04:29.774Z,67.57
2023-01-09T02:05:29.793Z,67.44
2023-01-09T02:06:29.829Z,67.00
2023-01-09T02:07:29.859Z,67.21
2023-01-09T02:08:29.829Z,67.47
2023-01-09T02:10:29.807Z,67.46
2023-01-09T02:11:29.843Z,67.59
2023-01-09T02:12:29.868Z,67.60
2023-01-09T02:13:29.843Z,67.60
2023-01-09T02:14:29.852Z,67.53
2023-01-09T02:15:29.896Z,67.10
2023-01-09T02:17:29.874Z,66.69
2023-01-09T02:18:29.862Z,66.50
2023-01-09T02:19:29.865Z,66.50
2023-01-09T02:20:29.896Z,67.01
2023-01-09T02:21:29.867Z,67.03
2023-01-09T02:22:29.808Z,67.03
2023-01-09T02:23:29.868Z,67.19
2023-01-09T02:24:29.897Z,67.89
2023-01-09T02:25:29.866Z,67.89
2023-01-09T02:26:29.862Z,67.53
2023-01-09T02:27:29.874Z,67.53
2023-01-09T02:28:29.914Z,68.52
2023-01-09T02:30:29.846Z,68.86
2023-01-09T02:31:29.862Z,68.99
2023-01-09T02:32:29.841Z,68.99
2023-01-09T02:33:29.918Z,68.02
2023-01-09T02:34:29.889Z,68.84
2023-01-09T02:35:29.884Z,68.84
2023-01-09T02:36:29.899Z,69.51
2023-01-09T02:37:29.893Z,69.51
2023-01-09T02:38:29.876Z,69.06
2023-01-09T02:39:29.928Z,69.19
2023-01-09T02:40:29.922Z,68.83
2023-01-09T02:41:29.946Z,68.49
2023-01-09T02:42:29.912Z,68.49
2023-01-09T02:43:29.875Z,67.59
2023-01-09T02:44:29.871Z,67.59
2023-01-09T02:45:29.955Z,68.05
2023-01-09T02:46:29.906Z,67.40
2023-01-09T02:47:29.916Z,67.65
2023-01-09T02:48:29.935Z,67.94
2023-01-09T02:49:29.905Z,68.09
2023-01-09T02:50:29.922Z,67.49
2023-01-09T02:51:29.934Z,68.12
2023-01-09T02:52:29.901Z,68.12
2023-01-09T02:53:29.937Z,68.54
2023-01-09T02:54:29.973Z,68.92
2023-01-09T02:55:29.948Z,69.21
2023-01-09T02:56:29.964Z,69.64
2023-01-09T02:57:29.961Z,69.64
2023-01-09T02:58:29.945Z,70.27
2023-01-09T02:59:29.953Z,70.27
2023-01-09T03:00:29.973Z,70.67
2023-01-09T03:01:30.180Z,70.79
2023-01-09T03:02:29.988Z,70.82
2023-01-09T03:03:29.958Z,70.82
2023-01-09T03:04:29.964Z,70.37
2023-01-09T03:05:29.968Z,70.66
2023-01-09T03:06:29.940Z,70.61
2023-01-09T03:07:29.978Z,69.39
2023-01-09T03:08:29.923Z,70.21
2023-01-09T03:09:29.979Z,70.21
2023-01-09T03:10:30.025Z,69.77
2023-01-09T03:11:29.980Z,69.77
2023-01-09T03:12:29.988Z,69.80
2023-01-09T03:13:30.001Z,69.98
2023-01-09T03:14:29.992Z,69.93
2023-01-09T03:15:30.047Z,69.93
2023-01-09T03:16:30.099Z,70.58
2023-01-09T03:17:29.992Z,70.11
2023-01-09T03:18:30.019Z,70.36
2023-01-09T03:19:29.959Z,70.36
2023-01-09T03:20:30.036Z,70.04
2023-01-09T03:21:30.022Z,70.33
2023-01-09T03:22:29.984Z,70.52
2023-01-09T03:23:30.041Z,70.54
2023-01-09T03:24:29.981Z,70.43
2023-01-09T03:25:29.981Z,70.65
2023-01-09T03:26:29.982Z,70.61
2023-01-09T03:27:30.045Z,70.56
2023-01-09T03:28:29.989Z,70.56
2023-01-09T03:29:30.029Z,69.99
2023-01-09T03:30:30.000Z,69.99
2023-01-09T03:31:30.064Z,70.25
2023-01-09T03:32:30.043Z,70.25
2023-01-09T03:33:29.986Z,70.22
2023-01-09T03:34:29.996Z,70.03
2023-01-09T03:35:30.035Z,69.51
2023-01-09T03:36:30.109Z,69.22
2023-01-09T03:37:30.079Z,68.75
2023-01-09T03:38:30.173Z,68.69
2023-01-09T03:39:30.079Z,68.29
2023-01-09T03:40:30.043Z,68.29
2023-01-09T03:41:30.071Z,68.71
2023-01-09T03:42:30.066Z,68.61
2023-01-09T03:43:30.024Z,68.61
2023-01-09T03:44:30.107Z,68.67
2023-01-09T03:45:30.100Z,68.79
2023-01-09T03:46:30.073Z,68.01
2023-01-09T03:48:30.085Z,67.86
2023-01-09T03:49:30.133Z,67.90
2023-01-09T03:50:30.041Z,67.86
2023-01-09T03:51:30.090Z,67.54
2023-01-09T03:52:30.128Z,67.83
2023-01-09T03:53:30.084Z,68.20
2023-01-09T03:54:30.105Z,68.20
2023-01-09T03:55:30.124Z,67.80
2023-01-09T03:56:30.098Z,67.80
2023-01-09T03:57:30.090Z,67.31
2023-01-09T03:58:30.107Z,67.40
2023-01-09T03:59:30.117Z,66.79
2023-01-09T04:00:30.084Z,67.16
2023-01-09T04:01:30.174Z,66.49
2023-01-09T04:02:30.074Z,66.34
2023-01-09T04:03:30.139Z,66.84
2023-01-09T04:04:30.104Z,67.69
2023-01-09T04:05:30.124Z,67.82
2023-01-09T04:06:30.087Z,67.82
2023-01-09T04:07:30.141Z,67.45
2023-01-09T04:08:30.084Z,67.63
2023-01-09T04:09:30.075Z,67.65
2023-01-09T04:10:30.170Z,67.55
2023-01-09T04:11:30.135Z,67.61
2023-01-09T04:12:30.109Z,67.93
2023-01-09T04:13:30.153Z,67.93
2023-01-09T04:14:30.154Z,68.00
2023-01-09T04:15:30.141Z,68.00
2023-01-09T04:16:30.181Z,67.95
2023-01-09T04:17:30.111Z,68.67
2023-01-09T04:18:30.190Z,68.74
2023-01-09T04:19:30.111Z,68.74
2023-01-09T04:20:30.119Z,68.84
2023-01-09T04:21:30.180Z,68.74
2023-01-09T04:22:30.163Z,68.68
2023-01-09T04:23:30.144Z,68.88
2023-01-09T04:25:30.139Z,69.10
2023-01-09T04:26:30.231Z,69.20
2023-01-09T04:27:30.191Z,69.53
2023-01-09T04:28:30.174Z,69.53
2023-01-09T04:29:30.169Z,69.56
2023-01-09T04:30:30.173Z,69.08
2023-01-09T04:31:30.241Z,68.95
2023-01-09T04:33:30.187Z,68.63
2023-01-09T04:34:30.217Z,68.99
2023-01-09T04:35:30.209Z,69.21
2023-01-09T04:36:30.162Z,69.03
2023-01-09T04:37:30.175Z,69.49
2023-01-09T04:38:30.189Z,69.49
2023-01-09T04:39:30.190Z,67.41
2023-01-09T04:40:30.173Z,67.41
2023-01-09T04:41:30.174Z,67.77
2023-01-09T04:42:30.240Z,67.77
2023-01-09T04:43:30.183Z,67.73
2023-01-09T04:44:30.208Z,67.41
2023-01-09T04:45:30.327Z,67.41
2023-01-09T04:46:30.189Z,67.88
2023-01-09T04:47:30.260Z,68.56
2023-01-09T04:48:30.239Z,68.92
2023-01-09T04:49:30.222Z,68.92
2023-01-09T04:50:31.441Z,68.88
2023-01-09T04:51:30.193Z,68.48
2023-01-09T04:52:30.242Z,68.32
2023-01-09T04:53:30.250Z,68.53
2023-01-09T04:54:30.229Z,68.53
2023-01-09T04:55:30.234Z,68.97
2023-01-09T04:56:30.294Z,68.24
2023-01-09T04:57:30.212Z,68.57
2023-01-09T04:58:30.191Z,68.57
2023-01-09T04:59:30.263Z,67.79
2023-01-09T05:00:30.291Z,67.59
2023-01-09T05:01:30.484Z,67.78
2023-01-09T05:02:30.268Z,67.72
2023-01-09T05:03:30.211Z,67.72
2023-01-09T05:04:30.286Z,66.67
2023-01-09T05:05:30.309Z,66.68
2023-01-09T05:06:30.261Z,66.68
2023-01-09T05:08:30.334Z,66.64
2023-01-09T05:09:30.245Z,64.89
2023-01-09T05:10:30.279Z,64.91
2023-01-09T05:11:30.342Z,65.44
2023-01-09T05:12:30.306Z,65.79
2023-01-09T05:13:30.308Z,66.28
2023-01-09T05:14:30.255Z,66.95
2023-01-09T05:15:30.323Z,66.84
2023-01-09T05:16:30.342Z,66.35
2023-01-09T05:17:30.291Z,66.64
2023-01-09T05:18:30.289Z,66.84
2023-01-09T05:19:30.257Z,66.84
2023-01-09T05:20:30.274Z,66.38
2023-01-09T05:21:30.306Z,66.44
2023-01-09T05:22:30.261Z,65.98
2023-01-09T05:23:30.311Z,66.14
2023-01-09T05:24:30.266Z,66.71
2023-01-09T05:25:30.336Z,66.15
2023-01-09T05:26:30.367Z,66.15
2023-01-09T05:27:30.326Z,66.39
2023-01-09T05:28:30.307Z,66.33
2023-01-09T05:29:30.333Z,66.64
2023-01-09T05:31:30.344Z,66.45
2023-01-09T05:32:30.346Z,66.51
2023-01-09T05:33:30.331Z,66.51
2023-01-09T05:34:30.311Z,66.09
2023-01-09T05:35:30.313Z,66.09
2023-01-09T05:36:30.301Z,66.15
2023-01-09T05:37:30.327Z,66.27
2023-01-09T05:38:30.348Z,66.45
2023-01-09T05:39:30.353Z,66.45
2023-01-09T05:40:39.552Z,66.14
2023-01-09T05:41:30.387Z,66.43
2023-01-09T05:42:30.386Z,66.33
2023-01-09T05:43:30.349Z,66.33
2023-01-09T05:44:30.320Z,65.65
2023-01-09T05:45:30.421Z,65.65
2023-01-09T05:47:30.404Z,65.81
2023-01-09T05:50:30.392Z,66.26
2023-01-09T05:51:30.385Z,66.51
2023-01-09T05:52:30.424Z,67.30
2023-01-09T05:53:30.321Z,67.30
2023-01-09T05:54:30.352Z,67.38
2023-01-09T05:55:30.429Z,67.21
2023-01-09T05:56:30.358Z,67.37
2023-01-09T05:57:30.339Z,67.37
2023-01-09T05:58:30.394Z,67.49
2023-01-09T05:59:30.358Z,67.48
2023-01-09T06:01:30.517Z,67.30
2023-01-09T06:02:30.571Z,67.32
2023-01-09T06:03:30.451Z,67.10
2023-01-09T06:04:30.413Z,67.11
2023-01-09T06:05:30.397Z,67.44
2023-01-09T06:06:30.423Z,67.69
2023-01-09T06:07:30.354Z,67.69
2023-01-09T06:08:30.416Z,67.47
2023-01-09T06:09:30.370Z,67.15
2023-01-09T06:10:30.406Z,67.15
2023-01-09T06:11:30.460Z,67.29
2023-01-09T06:12:30.430Z,67.12
2023-01-09T06:15:30.440Z,66.76
2023-01-09T06:16:30.477Z,66.59
2023-01-09T06:17:30.430Z,66.59
2023-01-09T06:18:30.393Z,66.52
2023-01-09T06:20:30.390Z,66.25
2023-01-09T06:21:30.396Z,66.08
2023-01-09T06:22:30.614Z,66.77
2023-01-09T06:23:30.446Z,67.12
2023-01-09T06:24:30.465Z,66.97
2023-01-09T06:25:30.466Z,66.32
2023-01-09T06:26:30.411Z,66.32
2023-01-09T06:27:30.455Z,65.91
2023-01-09T06:29:30.474Z,65.50
2023-01-09T06:30:30.414Z,65.81
2023-01-09T06:31:30.530Z,65.22
2023-01-09T06:32:30.506Z,65.63
2023-01-09T06:33:30.455Z,65.14
2023-01-09T06:34:30.493Z,65.08
2023-01-09T06:35:30.462Z,64.41
2023-01-09T06:36:30.446Z,64.48
2023-01-09T06:37:30.506Z,65.16
2023-01-09T06:38:30.453Z,63.73
2023-01-09T06:39:30.573Z,64.28
2023-01-09T06:40:30.478Z,62.94
2023-01-09T06:41:30.448Z,62.94
2023-01-09T06:42:30.485Z,63.09
2023-01-09T06:43:30.504Z,63.38
2023-01-09T06:44:30.477Z,63.03
2023-01-09T06:45:30.521Z,62.63
2023-01-09T06:46:30.564Z,62.81
2023-01-09T06:47:30.508Z,62.41
2023-01-09T06:48:30.454Z,62.41
2023-01-09T06:49:30.510Z,63.20
2023-01-09T06:51:30.528Z,62.50
2023-01-09T06:52:30.527Z,62.59
2023-01-09T06:53:30.561Z,62.74
2023-01-09T06:54:30.534Z,62.98
2023-01-09T06:55:30.573Z,62.48
2023-01-09T06:56:30.512Z,62.01
2023-01-09T06:57:30.722Z,61.97
2023-01-09T06:58:30.552Z,61.70
2023-01-09T06:59:30.539Z,61.86
2023-01-09T07:00:30.573Z,61.86
2023-01-09T07:03:32.445Z,61.78
2023-01-09T07:04:30.588Z,61.42
2023-01-09T07:05:30.555Z,61.42
2023-01-09T07:06:30.552Z,60.53
2023-01-09T07:07:30.550Z,61.26
2023-01-09T07:08:30.513Z,61.26
2023-01-09T07:09:30.567Z,61.28
2023-01-09T07:10:30.589Z,61.34
2023-01-09T07:11:30.608Z,61.10
2023-01-09T07:12:30.565Z,60.83
2023-01-09T07:13:30.538Z,60.83
2023-01-09T07:14:30.601Z,60.47
2023-01-09T07:15:30.547Z,60.47
2023-01-09T07:16:30.625Z,60.33
2023-01-09T07:17:30.582Z,60.38
2023-01-09T07:18:30.594Z,59.83
2023-01-09T07:19:30.616Z,59.88
2023-01-09T07:20:30.562Z,59.22
2023-01-09T07:21:32.713Z,59.73
2023-01-09T07:22:30.606Z,59.30
2023-01-09T07:23:30.569Z,59.82
2023-01-09T07:24:30.595Z,59.82
2023-01-09T07:26:30.606Z,59.22
2023-01-09T07:27:30.635Z,59.23
2023-01-09T07:28:30.630Z,59.21
2023-01-09T07:29:30.639Z,59.58
2023-01-09T07:30:30.608Z,59.09
2023-01-09T07:31:30.675Z,58.72
2023-01-09T07:32:30.618Z,58.96
2023-01-09T07:33:30.591Z,59.12
2023-01-09T07:34:30.646Z,58.90
2023-01-09T07:35:30.652Z,58.64
2023-01-09T07:36:30.597Z,58.83
2023-01-09T07:37:30.595Z,58.52
2023-01-09T07:38:30.605Z,58.54
2023-01-09T07:39:30.623Z,58.44
2023-01-09T07:40:30.624Z,58.79
2023-01-09T07:41:30.622Z,59.33
2023-01-09T07:42:30.604Z,59.23
2023-01-09T07:43:30.635Z,59.52
2023-01-09T07:44:30.650Z,59.60
2023-01-09T07:45:33.421Z,59.80
2023-01-09T07:46:30.693Z,59.20
2023-01-09T07:47:30.624Z,59.25
2023-01-09T07:48:30.699Z,58.95
2023-01-09T07:49:30.656Z,58.89
2023-01-09T07:50:30.623Z,58.74
2023-01-09T07:51:30.667Z,58.74
2023-01-09T07:52:30.618Z,58.58
2023-01-09T07:53:30.668Z,57.80
2023-01-09T07:54:30.622Z,57.96
2023-01-09T07:55:30.626Z,58.60
2023-01-09T07:56:30.705Z,58.66
2023-01-09T07:57:30.652Z,58.21
2023-01-09T07:58:30.633Z,57.88
2023-01-09T07:59:30.637Z,57.88
2023-01-09T08:00:32.946Z,57.97
2023-01-09T08:01:30.773Z,58.04
2023-01-09T08:03:30.680Z,57.95
2023-01-09T08:04:30.683Z,57.92
2023-01-09T08:05:30.651Z,57.79
2023-01-09T08:06:30.648Z,57.79
2023-01-09T08:07:30.659Z,57.72
2023-01-09T08:08:30.693Z,57.13
2023-01-09T08:09:30.740Z,57.17
2023-01-09T08:11:30.670Z,57.63
2023-01-09T08:12:30.705Z,57.19
2023-01-09T08:15:30.727Z,56.99
2023-01-09T08:16:30.682Z,57.17
2023-01-09T08:17:30.720Z,57.21
2023-01-09T08:18:30.702Z,57.21
2023-01-09T08:19:30.688Z,57.12
2023-01-09T08:20:30.697Z,56.87
2023-01-09T08:21:30.701Z,56.07
2023-01-09T08:22:30.694Z,56.45
2023-01-09T08:23:30.728Z,56.45
2023-01-09T08:24:30.740Z,56.42
2023-01-09T08:25:30.746Z,56.05
2023-01-09T08:26:30.743Z,56.11
2023-01-09T08:27:30.721Z,55.44
2023-01-09T08:28:30.700Z,55.44
2023-01-09T08:29:30.722Z,55.81
2023-01-09T08:30:30.740Z,55.96
2023-01-09T08:32:30.759Z,55.84
2023-01-09T08:33:30.805Z,55.54
2023-01-09T08:34:30.754Z,55.71
2023-01-09T08:35:30.727Z,55.49
2023-01-09T08:36:30.723Z,55.45
2023-01-09T08:37:30.767Z,55.17
2023-01-09T08:38:30.757Z,54.55
2023-01-09T08:39:30.747Z,54.54
2023-01-09T08:40:30.795Z,54.43
2023-01-09T08:41:30.753Z,53.84
2023-01-09T08:42:30.744Z,53.11
2023-01-09T08:43:30.776Z,51.63
2023-01-09T08:44:30.784Z,51.35
2023-01-09T08:45:30.742Z,51.35
2023-01-09T08:46:31.374Z,50.65
2023-01-09T08:47:30.809Z,50.65
2023-01-09T08:49:30.768Z,50.74
2023-01-09T08:50:30.763Z,50.58
2023-01-09T08:51:30.823Z,50.81
2023-01-09T08:52:30.827Z,50.81
2023-01-09T08:53:30.798Z,49.83
2023-01-09T08:54:31.360Z,49.78
2023-01-09T08:55:30.801Z,50.07
2023-01-09T08:56:30.773Z,49.98
2023-01-09T08:57:30.794Z,50.52
2023-01-09T08:58:30.814Z,50.36
2023-01-09T08:59:30.873Z,50.35
2023-01-09T09:00:30.786Z,50.35
2023-01-09T09:01:30.826Z,51.07
2023-01-09T09:02:30.846Z,51.07
2023-01-09T09:03:30.796Z,51.66
2023-01-09T09:04:30.825Z,51.36
2023-01-09T09:05:30.841Z,51.36
2023-01-09T09:06:30.811Z,51.75
2023-01-09T09:07:30.913Z,52.02
2023-01-09T09:08:30.854Z,52.19
2023-01-09T09:09:30.798Z,52.19
2023-01-09T09:10:30.857Z,52.24
2023-01-09T09:11:30.868Z,52.77
2023-01-09T09:12:30.885Z,52.59
2023-01-09T09:13:30.881Z,52.92
2023-01-09T09:14:30.880Z,53.06
2023-01-09T09:15:30.854Z,53.15
2023-01-09T09:16:30.916Z,53.21
2023-01-09T09:17:30.833Z,53.56
2023-01-09T09:18:30.844Z,53.56
2023-01-09T09:19:30.869Z,53.41
2023-01-09T09:20:30.875Z,53.45
2023-01-09T09:21:30.870Z,53.45
2023-01-09T09:22:30.877Z,53.59
2023-01-09T09:23:30.844Z,53.25
2023-01-09T09:24:30.855Z,53.09
2023-01-09T09:25:30.872Z,52.50
2023-01-09T09:26:30.891Z,52.50
2023-01-09T09:27:30.857Z,52.29
2023-01-09T09:28:30.935Z,52.44
2023-01-09T09:29:30.866Z,52.21
2023-01-09T09:30:30.893Z,52.07
2023-01-09T09:31:30.953Z,52.07
2023-01-09T09:32:30.858Z,51.18
2023-01-09T09:33:30.919Z,50.72
2023-01-09T09:34:30.904Z,49.44
2023-01-09T09:35:30.898Z,48.83
2023-01-09T09:36:30.936Z,49.00
2023-01-09T09:37:30.904Z,47.75
2023-01-09T09:38:30.876Z,46.85
2023-01-09T09:39:30.879Z,44.87
2023-01-09T09:40:30.935Z,42.99
2023-01-09T09:41:30.960Z,38.13
2023-01-09T09:42:30.932Z,36.97
2023-01-09T09:43:30.901Z,36.73
2023-01-09T09:44:30.896Z,37.27
2023-01-09T09:45:30.947Z,37.01
2023-01-09T09:46:30.985Z,37.89
2023-01-09T09:47:30.945Z,38.09
2023-01-09T09:48:30.948Z,38.90
2023-01-09T09:49:30.932Z,40.28
2023-01-09T09:50:30.922Z,40.61
2023-01-09T09:51:30.938Z,40.24
2023-01-09T09:52:30.941Z,40.24
2023-01-09T09:53:31.030Z,39.40
2023-01-09T09:54:30.946Z,39.40
2023-01-09T09:55:30.905Z,39.14
2023-01-09T09:56:30.957Z,38.49
2023-01-09T09:57:30.921Z,38.98
2023-01-09T09:58:30.980Z,38.63
2023-01-09T09:59:30.982Z,38.42
2023-01-09T10:00:30.979Z,37.34
2023-01-09T10:01:30.937Z,37.03
2023-01-09T10:02:31.044Z,36.14
2023-01-09T10:03:34.100Z,35.41
2023-01-09T10:04:30.986Z,34.10
2023-01-09T10:05:30.941Z,32.39
2023-01-09T10:06:30.997Z,31.79
2023-01-09T10:07:30.998Z,30.69
2023-01-09T10:08:31.004Z,29.61
2023-01-09T10:09:30.976Z,29.71
2023-01-09T10:10:30.998Z,30.03
2023-01-09T10:11:30.971Z,30.58
2023-01-09T10:12:31.005Z,30.58
2023-01-09T10:13:32.576Z,29.53
2023-01-09T10:14:30.985Z,28.59
2023-01-09T10:15:31.001Z,26.43
2023-01-09T10:16:30.969Z,26.43
2023-01-09T10:17:30.974Z,26.54
2023-01-09T10:18:30.989Z,26.63
2023-01-09T10:19:30.994Z,26.42
2023-01-09T10:20:31.030Z,27.81
2023-01-09T10:21:31.033Z,28.30
2023-01-09T10:22:31.028Z,29.31
2023-01-09T10:23:31.081Z,30.90
2023-01-09T10:24:31.040Z,30.90
2023-01-09T10:25:31.046Z,32.75
2023-01-09T10:26:31.003Z,33.35
2023-01-09T10:27:31.026Z,33.52
2023-01-09T10:28:31.068Z,33.98
2023-01-09T10:29:31.016Z,33.98
2023-01-09T10:30:31.028Z,35.13
2023-01-09T10:31:31.121Z,35.55
2023-01-09T10:32:31.017Z,35.99
2023-01-09T10:33:31.018Z,35.75
2023-01-09T10:34:31.046Z,35.75
2023-01-09T10:35:42.736Z,36.03
2023-01-09T10:36:31.107Z,36.51
2023-01-09T10:37:31.074Z,37.00
2023-01-09T10:38:31.034Z,37.30
2023-01-09T10:39:31.031Z,37.30
2023-01-09T10:40:31.091Z,37.34
2023-01-09T10:41:31.075Z,37.56
2023-01-09T10:42:31.058Z,37.83
2023-01-09T10:43:31.087Z,38.37
2023-01-09T10:44:31.081Z,38.47
2023-01-09T10:45:31.098Z,38.47
2023-01-09T10:46:31.129Z,38.36
2023-01-09T10:47:31.044Z,38.99
2023-01-09T10:48:31.081Z,39.04
2023-01-09T10:49:31.112Z,39.76
2023-01-09T10:50:31.094Z,39.76
2023-01-09T10:51:31.074Z,39.54
2023-01-09T10:53:31.072Z,40.03
2023-01-09T10:54:31.091Z,40.44
2023-01-09T10:55:31.088Z,40.42
2023-01-09T10:56:31.091Z,40.73
2023-01-09T10:57:31.122Z,40.97
2023-01-09T10:58:31.086Z,40.97
2023-01-09T10:59:31.171Z,41.66
2023-01-09T11:00:31.093Z,41.61
2023-01-09T11:02:31.193Z,41.86
2023-01-09T11:03:31.250Z,41.69
2023-01-09T11:04:31.136Z,41.07
2023-01-09T11:05:32.710Z,41.54
2023-01-09T11:06:31.098Z,41.54
2023-01-09T11:07:31.139Z,42.19
2023-01-09T11:08:31.152Z,41.82
2023-01-09T11:09:31.110Z,41.82
2023-01-09T11:10:31.180Z,42.29
2023-01-09T11:11:31.162Z,42.46
2023-01-09T11:12:31.164Z,42.71
2023-01-09T11:13:31.120Z,43.17
2023-01-09T11:14:31.150Z,43.27
2023-01-09T11:15:31.130Z,43.36
2023-01-09T11:16:31.215Z,43.58
2023-01-09T11:17:31.152Z,43.58
2023-01-09T11:18:31.210Z,43.02
2023-01-09T11:19:31.195Z,43.02
2023-01-09T11:20:31.177Z,43.52
2023-01-09T11:21:31.150Z,43.36
2023-01-09T11:22:31.138Z,43.14
2023-01-09T11:23:31.203Z,43.32
2023-01-09T11:24:31.187Z,43.09
2023-01-09T11:25:31.192Z,43.30
2023-01-09T11:26:31.231Z,43.63
2023-01-09T11:27:31.202Z,43.60
2023-01-09T11:28:31.159Z,43.60
2023-01-09T11:29:31.193Z,43.78
2023-01-09T11:30:31.158Z,43.71
2023-01-09T11:31:31.282Z,44.08
2023-01-09T11:32:31.171Z,44.39
2023-01-09T11:33:31.214Z,44.39
2023-01-09T11:34:31.192Z,44.52
2023-01-09T11:35:33.923Z,44.75
2023-01-09T11:36:31.236Z,44.75
2023-01-09T11:37:31.178Z,44.71
2023-01-09T11:38:31.182Z,45.18
2023-01-09T11:39:31.272Z,45.26
2023-01-09T11:40:31.219Z,45.26
2023-01-09T11:41:31.363Z,45.92
2023-01-09T11:42:31.243Z,45.76
2023-01-09T11:43:31.246Z,46.11
2023-01-09T11:44:31.257Z,46.65
2023-01-09T11:45:31.219Z,47.67
2023-01-09T11:46:31.228Z,47.67
2023-01-09T11:47:31.237Z,49.18
2023-01-09T11:48:31.205Z,49.18
2023-01-09T11:49:31.219Z,49.44
2023-01-09T11:50:31.228Z,50.41
2023-01-09T11:51:31.209Z,51.02
2023-01-09T11:52:31.250Z,51.48
2023-01-09T11:54:31.218Z,52.00
2023-01-09T11:55:41.838Z,51.92
2023-01-09T11:56:31.228Z,52.54
2023-01-09T11:57:31.253Z,52.63
2023-01-09T11:58:31.227Z,52.84
2023-01-09T11:59:31.259Z,52.65
2023-01-09T12:00:31.331Z,52.94
2023-01-09T12:01:31.262Z,53.19
2023-01-09T12:02:31.240Z,53.60
2023-01-09T12:03:31.302Z,53.80
2023-01-09T12:04:31.293Z,53.67
2023-01-09T12:05:31.325Z,53.91
2023-01-09T12:06:31.306Z,53.91
2023-01-09T12:07:31.285Z,54.40
2023-01-09T12:08:31.285Z,55.57
2023-01-09T12:09:31.261Z,55.95
2023-01-09T12:11:31.282Z,56.68
2023-01-09T12:12:31.295Z,56.91
2023-01-09T12:13:31.314Z,57.70
2023-01-09T12:14:31.310Z,57.70
2023-01-09T12:15:31.268Z,58.32
2023-01-09T12:16:31.383Z,58.03
2023-01-09T12:17:31.281Z,58.59
2023-01-09T12:18:32.528Z,58.78
2023-01-09T12:19:31.284Z,58.40
2023-01-09T12:20:31.341Z,57.59
2023-01-09T12:21:31.374Z,57.32
2023-01-09T12:22:31.295Z,57.59
2023-01-09T12:23:31.277Z,57.98
2023-01-09T12:24:31.285Z,58.29
2023-01-09T12:25:31.298Z,58.35
2023-01-09T12:27:31.304Z,58.26
2023-01-09T12:28:31.346Z,58.09
2023-01-09T12:29:31.334Z,58.09
2023-01-09T12:30:31.349Z,58.29
2023-01-09T12:31:31.424Z,58.29
2023-01-09T12:32:31.361Z,58.50
2023-01-09T12:33:31.320Z,58.25
2023-01-09T12:34:31.360Z,57.96
2023-01-09T12:35:31.371Z,57.66
2023-01-09T12:36:31.362Z,58.08
2023-01-09T12:37:31.347Z,57.81
2023-01-09T12:38:31.365Z,57.63
2023-01-09T12:39:31.392Z,57.69
2023-01-09T12:40:31.348Z,57.82
2023-01-09T12:41:31.359Z,57.90
2023-01-09T12:42:31.400Z,57.58
2023-01-09T12:43:31.370Z,57.35
2023-01-09T12:44:35.972Z,57.45
2023-01-09T12:46:31.404Z,56.92
2023-01-09T12:47:31.377Z,56.78
2023-01-09T12:48:31.347Z,56.68
2023-01-09T12:49:31.357Z,56.65
2023-01-09T12:50:31.365Z,56.43
2023-01-09T12:51:31.407Z,57.07
2023-01-09T12:52:31.395Z,56.72
2023-01-09T12:53:31.367Z,56.69
2023-01-09T12:54:31.367Z,57.13
2023-01-09T12:55:31.414Z,57.22
2023-01-09T12:56:31.379Z,57.19
2023-01-09T12:57:31.370Z,57.08
2023-01-09T12:58:31.421Z,57.08
2023-01-09T12:59:31.419Z,57.03
2023-01-09T13:00:31.452Z,56.96
2023-01-09T13:01:31.454Z,57.04
2023-01-09T13:02:31.440Z,57.07
2023-01-09T13:03:31.427Z,57.52
2023-01-09T13:04:31.386Z,57.52
2023-01-09T13:05:31.432Z,57.13
2023-01-09T13:06:31.465Z,56.25
2023-01-09T13:07:31.413Z,56.49
2023-01-09T13:08:31.472Z,56.92
2023-01-09T13:09:31.443Z,56.91
2023-01-09T13:10:31.446Z,57.55
2023-01-09T13:11:31.446Z,58.13
2023-01-09T13:12:31.438Z,58.53
2023-01-09T13:13:31.424Z,58.28
2023-01-09T13:14:31.400Z,58.82
2023-01-09T13:15:31.439Z,58.82
2023-01-09T13:16:31.548Z,58.76
2023-01-09T13:17:31.455Z,58.76
2023-01-09T13:18:31.418Z,57.93
2023-01-09T13:19:31.453Z,58.21
2023-01-09T13:20:31.476Z,58.27
2023-01-09T13:21:31.499Z,58.11
2023-01-09T13:22:31.485Z,58.61
2023-01-09T13:23:31.465Z,58.61
2023-01-09T13:24:31.543Z,58.71
2023-01-09T13:25:31.491Z,58.71
2023-01-09T13:26:31.436Z,59.28
2023-01-09T13:27:31.477Z,59.23
2023-01-09T13:28:31.450Z,59.23
2023-01-09T13:29:31.531Z,59.19
2023-01-09T13:30:31.442Z,59.55
2023-01-09T13:31:31.529Z,59.24
2023-01-09T13:32:31.454Z,59.24
2023-01-09T13:33:31.466Z,59.29
2023-01-09T13:34:31.524Z,59.46
2023-01-09T13:35:31.498Z,59.46